createdAt,value
2018-12-01T00:00:27.611Z,46.97
2018-12-01T00:03:02.734Z,48.10
2018-12-01T00:05:44.414Z,45.37
2018-12-01T00:08:19.639Z,46.63
2018-12-01T00:10:55.545Z,40.27
2018-12-01T00:13:31.379Z,39.43
2018-12-01T00:16:07.516Z,37.07
2018-12-01T00:18:43.494Z,39.43
2018-12-01T00:21:19.448Z,41.47
2018-12-01T00:23:54.934Z,38.67
2018-12-01T00:26:31.686Z,45.70
2018-12-01T00:29:06.921Z,42.43
2018-12-01T00:31:43.496Z,41.70
2018-12-01T00:34:18.514Z,39.07
2018-12-01T00:36:54.400Z,40.27
2018-12-01T00:39:29.396Z,46.47
2018-12-01T00:42:06.077Z,40.20
2018-12-01T00:44:41.104Z,40.37
2018-12-01T00:47:16.127Z,41.17
2018-12-01T00:49:51.173Z,48.57
2018-12-01T00:52:26.168Z,36.00
2018-12-01T00:55:01.830Z,43.83
2018-12-01T00:57:37.023Z,39.73
2018-12-01T01:00:20.621Z,43.63
2018-12-01T01:02:58.670Z,44.17
2018-12-01T01:05:34.264Z,37.37
2018-12-01T01:08:10.125Z,38.17
2018-12-01T01:10:45.072Z,35.17
2018-12-01T01:13:20.914Z,39.33
2018-12-01T01:15:56.702Z,35.87
2018-12-01T01:18:31.808Z,42.13
2018-12-01T01:21:06.807Z,32.70
2018-12-01T01:23:42.567Z,32.73
2018-12-01T01:26:18.436Z,37.10
2018-12-01T01:28:53.472Z,37.13
2018-12-01T01:31:29.110Z,38.17
2018-12-01T01:34:04.055Z,52.80
2018-12-01T01:36:39.960Z,35.57
2018-12-01T01:39:15.135Z,30.93
2018-12-01T01:41:50.324Z,39.70
2018-12-01T01:44:26.135Z,39.80
2018-12-01T01:47:02.001Z,31.57
2018-12-01T01:49:37.937Z,41.33
2018-12-01T01:52:13.695Z,36.10
2018-12-01T01:54:49.008Z,33.77
2018-12-01T01:57:24.904Z,34.10
2018-12-01T02:00:01.303Z,31.57
2018-12-01T02:02:36.589Z,31.13
2018-12-01T02:05:11.663Z,35.93
2018-12-01T02:07:46.602Z,36.40
2018-12-01T02:10:21.928Z,35.17
2018-12-01T02:12:56.920Z,36.93
2018-12-01T02:15:32.904Z,31.07
2018-12-01T02:18:08.645Z,36.33
2018-12-01T02:20:44.485Z,34.03
2018-12-01T02:23:20.291Z,38.90
2018-12-01T02:25:55.366Z,35.57
2018-12-01T02:28:31.211Z,32.93
2018-12-01T02:31:07.405Z,41.73
2018-12-01T02:33:43.043Z,40.53
2018-12-01T02:36:18.067Z,34.37
2018-12-01T02:38:54.133Z,42.80
2018-12-01T02:41:29.244Z,32.97
2018-12-01T02:44:16.429Z,33.13
2018-12-01T02:47:07.044Z,37.47
2018-12-01T02:49:41.995Z,27.23
2018-12-01T02:52:17.236Z,37.40
2018-12-01T02:54:52.957Z,32.57
2018-12-01T02:57:27.915Z,26.83
2018-12-01T03:00:03.929Z,29.90
2018-12-01T03:02:39.775Z,31.17
2018-12-01T03:05:15.698Z,33.47
2018-12-01T03:07:52.329Z,32.00
2018-12-01T03:10:27.391Z,29.40
2018-12-01T03:13:03.269Z,32.57
2018-12-01T03:15:39.099Z,25.93
2018-12-01T03:18:13.982Z,37.30
2018-12-01T03:20:49.135Z,24.93
2018-12-01T03:23:24.082Z,26.77
2018-12-01T03:25:59.141Z,27.90
2018-12-01T03:28:35.053Z,18.30
2018-12-01T03:31:10.023Z,31.53
2018-12-01T03:33:45.727Z,31.17
2018-12-01T03:36:21.539Z,29.70
2018-12-01T03:38:57.223Z,35.13
2018-12-01T03:41:32.195Z,24.87
2018-12-01T03:44:07.295Z,33.30
2018-12-01T03:46:42.278Z,30.80
2018-12-01T03:49:19.574Z,31.13
2018-12-01T03:51:54.907Z,38.13
2018-12-01T03:54:30.863Z,30.50
2018-12-01T03:57:06.607Z,27.13
2018-12-01T03:59:41.643Z,37.00
2018-12-01T04:02:16.584Z,25.53
2018-12-01T04:04:52.530Z,38.87
2018-12-01T04:07:28.484Z,30.40
2018-12-01T04:10:03.517Z,28.10
2018-12-01T04:12:38.527Z,31.00
2018-12-01T04:15:13.552Z,30.60
2018-12-01T04:17:49.790Z,26.00
2018-12-01T04:20:25.277Z,31.37
2018-12-01T04:23:00.974Z,30.83
2018-12-01T04:25:36.832Z,39.43
2018-12-01T04:28:12.074Z,25.00
2018-12-01T04:30:47.468Z,31.47
2018-12-01T04:33:22.508Z,33.40
2018-12-01T04:35:58.373Z,26.13
2018-12-01T04:38:34.259Z,32.97
2018-12-01T04:41:10.267Z,33.33
2018-12-01T04:43:45.353Z,35.03
2018-12-01T04:46:20.122Z,28.93
2018-12-01T04:48:56.022Z,28.57
2018-12-01T04:51:31.939Z,31.10
2018-12-01T04:54:06.939Z,24.57
2018-12-01T04:56:42.000Z,31.40
2018-12-01T04:59:17.851Z,29.27
2018-12-01T05:01:52.782Z,26.47
2018-12-01T05:04:28.651Z,29.80
2018-12-01T05:07:03.620Z,33.43
2018-12-01T05:09:39.028Z,27.27
2018-12-01T05:12:16.116Z,28.33
2018-12-01T05:14:51.629Z,23.97
2018-12-01T05:17:26.784Z,28.47
2018-12-01T05:20:02.562Z,27.37
2018-12-01T05:22:38.390Z,35.80
2018-12-01T05:25:14.272Z,21.80
2018-12-01T05:27:50.202Z,33.27
2018-12-01T05:30:26.133Z,26.13
2018-12-01T05:33:01.111Z,29.93
2018-12-01T05:35:36.855Z,23.67
2018-12-01T05:38:12.805Z,22.23
2018-12-01T05:40:48.027Z,25.57
2018-12-01T05:43:23.858Z,25.90
2018-12-01T05:45:58.978Z,20.90
2018-12-01T05:48:34.053Z,26.40
2018-12-01T05:51:09.866Z,32.17
2018-12-01T05:53:45.669Z,31.43
2018-12-01T05:56:21.585Z,21.03
2018-12-01T05:58:56.697Z,31.70
2018-12-01T06:01:32.695Z,28.90
2018-12-01T06:04:07.749Z,27.37
2018-12-01T06:06:43.483Z,32.33
2018-12-01T06:09:18.752Z,31.30
2018-12-01T06:11:54.599Z,29.07
2018-12-01T06:14:29.596Z,36.63
2018-12-01T06:17:04.558Z,30.97
2018-12-01T06:19:40.483Z,31.37
2018-12-01T06:22:16.290Z,23.80
2018-12-01T06:24:52.193Z,24.67
2018-12-01T06:27:28.038Z,32.23
2018-12-01T06:30:05.181Z,26.73
2018-12-01T06:32:41.047Z,31.10
2018-12-01T06:35:16.216Z,27.67
2018-12-01T06:37:52.110Z,27.90
2018-12-01T06:40:27.216Z,26.27
2018-12-01T06:43:02.889Z,24.03
2018-12-01T06:45:37.995Z,31.13
2018-12-01T06:48:13.686Z,19.70
2018-12-01T06:50:48.974Z,27.00
2018-12-01T06:53:24.108Z,29.47
2018-12-01T06:55:59.146Z,28.47
2018-12-01T06:58:34.221Z,32.10
2018-12-01T07:01:10.201Z,31.00
2018-12-01T07:03:45.172Z,27.00
2018-12-01T07:06:22.049Z,30.60
2018-12-01T07:08:57.775Z,30.33
2018-12-01T07:11:32.953Z,26.47
2018-12-01T07:14:08.801Z,32.73
2018-12-01T07:16:43.844Z,25.87
2018-12-01T07:19:19.691Z,32.50
2018-12-01T07:21:55.548Z,24.37
2018-12-01T07:24:30.582Z,26.70
2018-12-01T07:27:06.500Z,27.17
2018-12-01T07:29:42.225Z,36.57
2018-12-01T07:32:17.320Z,28.00
2018-12-01T07:34:52.340Z,24.40
2018-12-01T07:37:28.210Z,38.07
2018-12-01T07:40:13.986Z,22.90
2018-12-01T07:42:49.006Z,34.03
2018-12-01T07:45:24.135Z,27.63
2018-12-01T07:47:59.903Z,29.50
2018-12-01T07:50:35.748Z,25.67
2018-12-01T07:53:10.733Z,30.60
2018-12-01T07:55:47.118Z,28.90
2018-12-01T07:58:22.480Z,24.50
2018-12-01T08:00:57.816Z,29.53
2018-12-01T08:03:32.853Z,29.97
2018-12-01T08:06:08.170Z,33.73
2018-12-01T08:08:43.573Z,20.27
2018-12-01T08:11:19.521Z,35.63
2018-12-01T08:13:54.431Z,35.27
2018-12-01T08:16:30.363Z,28.57
2018-12-01T08:19:06.159Z,36.13
2018-12-01T08:21:41.461Z,28.60
2018-12-01T08:24:16.403Z,29.40
2018-12-01T08:26:51.530Z,23.70
2018-12-01T08:29:27.228Z,26.17
2018-12-01T08:32:02.447Z,33.83
2018-12-01T08:34:38.040Z,32.43
2018-12-01T08:37:13.039Z,28.40
2018-12-01T08:39:48.889Z,29.17
2018-12-01T08:42:24.947Z,25.13
2018-12-01T08:45:00.090Z,22.60
2018-12-01T08:47:35.144Z,18.90
2018-12-01T08:50:18.206Z,27.03
2018-12-01T08:52:54.032Z,24.10
2018-12-01T08:55:29.119Z,25.57
2018-12-01T08:58:05.267Z,28.13
2018-12-01T09:00:42.120Z,28.80
2018-12-01T09:03:19.314Z,30.17
2018-12-01T09:05:54.747Z,30.17
2018-12-01T09:08:29.836Z,27.37
2018-12-01T09:11:08.587Z,21.93
2018-12-01T09:13:50.866Z,36.13
2018-12-01T09:16:28.839Z,29.97
2018-12-01T09:19:03.936Z,31.60
2018-12-01T09:21:38.927Z,29.63
2018-12-01T09:24:14.082Z,26.37
2018-12-01T09:26:49.067Z,27.43
2018-12-01T09:29:24.897Z,30.97
2018-12-01T09:31:59.810Z,24.13
2018-12-01T09:34:34.807Z,25.63
2018-12-01T09:37:09.908Z,19.23
2018-12-01T09:39:45.944Z,20.20
2018-12-01T09:42:24.781Z,23.53
2018-12-01T09:44:56.960Z,27.07
2018-12-01T09:47:31.915Z,22.17
2018-12-01T09:50:09.617Z,29.33
2018-12-01T09:52:47.228Z,22.73
2018-12-01T09:55:24.309Z,29.43
2018-12-01T09:58:00.194Z,25.63
2018-12-01T10:00:35.792Z,22.90
2018-12-01T10:03:11.614Z,22.40
2018-12-01T10:05:47.561Z,26.17
2018-12-01T10:08:23.293Z,22.03
2018-12-01T10:10:59.191Z,24.83
2018-12-01T10:13:34.136Z,26.93
2018-12-01T10:16:09.193Z,28.43
2018-12-01T10:18:46.344Z,18.20
2018-12-01T10:21:21.864Z,25.43
2018-12-01T10:23:58.787Z,25.17
2018-12-01T10:26:34.493Z,24.33
2018-12-01T10:29:09.576Z,23.83
2018-12-01T10:31:44.515Z,27.57
2018-12-01T10:34:20.433Z,25.93
2018-12-01T10:36:56.330Z,24.63
2018-12-01T10:39:31.535Z,25.27
2018-12-01T10:42:07.396Z,21.20
2018-12-01T10:44:43.238Z,31.13
2018-12-01T10:47:19.154Z,23.33
2018-12-01T10:49:54.149Z,26.87
2018-12-01T10:52:30.002Z,21.17
2018-12-01T10:55:10.251Z,20.50
2018-12-01T10:57:45.908Z,26.90
2018-12-01T11:00:26.510Z,35.50
2018-12-01T11:03:11.236Z,27.30
2018-12-01T11:05:47.045Z,23.40
2018-12-01T11:08:22.574Z,24.60
2018-12-01T11:10:58.487Z,26.00
2018-12-01T11:13:34.367Z,23.60
2018-12-01T11:16:09.349Z,20.57
2018-12-01T11:18:45.175Z,23.63
2018-12-01T11:21:21.146Z,24.03
2018-12-01T11:23:56.810Z,25.13
2018-12-01T11:26:32.753Z,20.40
2018-12-01T11:29:08.430Z,23.63
2018-12-01T11:31:44.452Z,29.37
2018-12-01T11:34:20.203Z,25.83
2018-12-01T11:36:55.242Z,24.70
2018-12-01T11:39:30.277Z,23.47
2018-12-01T11:42:06.289Z,19.33
2018-12-01T11:44:41.999Z,22.97
2018-12-01T11:47:18.166Z,24.83
2018-12-01T11:49:52.676Z,20.73
2018-12-01T11:52:27.581Z,24.70
2018-12-01T11:55:03.873Z,20.43
2018-12-01T11:57:39.228Z,20.20
2018-12-01T12:00:16.924Z,21.00
2018-12-01T12:02:52.125Z,26.90
2018-12-01T12:05:27.177Z,21.00
2018-12-01T12:08:24.987Z,19.53
2018-12-01T12:11:00.763Z,21.93
2018-12-01T12:13:36.371Z,19.43
2018-12-01T12:16:11.463Z,20.73
2018-12-01T12:18:47.423Z,20.40
2018-12-01T12:21:24.035Z,22.37
2018-12-01T12:23:59.302Z,19.90
2018-12-01T12:26:35.183Z,17.17
2018-12-01T12:29:10.207Z,15.87
2018-12-01T12:31:46.122Z,20.00
2018-12-01T12:34:27.079Z,19.60
2018-12-01T12:37:03.482Z,19.80
2018-12-01T12:39:38.956Z,17.10
2018-12-01T12:42:14.944Z,17.10
2018-12-01T12:44:50.569Z,17.63
2018-12-01T12:47:26.470Z,14.27
2018-12-01T12:50:01.582Z,15.53
2018-12-01T12:52:36.566Z,17.87
2018-12-01T12:55:14.710Z,14.33
2018-12-01T12:57:50.419Z,18.20
2018-12-01T13:00:26.323Z,13.60
2018-12-01T13:03:05.340Z,17.07
2018-12-01T13:05:46.414Z,13.27
2018-12-01T13:08:21.569Z,20.53
2018-12-01T13:10:58.317Z,18.83
2018-12-01T13:13:33.318Z,15.33
2018-12-01T13:16:09.288Z,17.00
2018-12-01T13:18:45.136Z,21.87
2018-12-01T13:21:21.764Z,16.07
2018-12-01T13:23:57.579Z,20.37
2018-12-01T13:26:32.623Z,17.13
2018-12-01T13:29:08.380Z,16.10
2018-12-01T13:31:43.334Z,13.67
2018-12-01T13:34:19.279Z,15.57
2018-12-01T13:36:54.301Z,9.43
2018-12-01T13:39:29.994Z,12.93
2018-12-01T13:42:05.335Z,12.87
2018-12-01T13:44:40.672Z,14.33
2018-12-01T13:47:16.663Z,12.33
2018-12-01T13:49:52.643Z,11.13
2018-12-01T13:52:28.458Z,15.90
2018-12-01T13:55:04.581Z,11.33
2018-12-01T13:57:40.168Z,14.53
2018-12-01T14:00:18.441Z,13.93
2018-12-01T14:02:53.533Z,12.07
2018-12-01T14:05:29.561Z,10.87
2018-12-01T14:08:05.906Z,14.10
2018-12-01T14:10:43.051Z,19.10
2018-12-01T14:13:18.085Z,15.90
2018-12-01T14:15:54.033Z,11.83
2018-12-01T14:18:29.143Z,15.80
2018-12-01T14:21:05.085Z,11.80
2018-12-01T14:23:40.678Z,21.27
2018-12-01T14:26:16.070Z,16.10
2018-12-01T14:28:51.815Z,15.97
2018-12-01T14:31:27.061Z,12.70
2018-12-01T14:34:02.974Z,13.97
2018-12-01T14:36:38.898Z,11.70
2018-12-01T14:39:14.226Z,13.43
2018-12-01T14:41:49.283Z,13.43
2018-12-01T14:44:25.222Z,15.57
2018-12-01T14:47:01.179Z,16.57
2018-12-01T14:49:36.487Z,20.97
2018-12-01T14:52:12.279Z,15.73
2018-12-01T14:54:47.201Z,14.93
2018-12-01T14:57:22.736Z,17.70
2018-12-01T14:59:58.019Z,14.37
2018-12-01T15:02:33.900Z,15.07
2018-12-01T15:05:10.037Z,16.77
2018-12-01T15:07:46.631Z,18.10
2018-12-01T15:10:23.864Z,14.97
2018-12-01T15:12:59.193Z,17.73
2018-12-01T15:15:34.244Z,13.33
2018-12-01T15:18:10.079Z,14.07
2018-12-01T15:20:45.841Z,17.60
2018-12-01T15:23:20.758Z,17.23
2018-12-01T15:25:56.872Z,14.67
2018-12-01T15:28:32.392Z,16.23
2018-12-01T15:31:07.944Z,18.50
2018-12-01T15:33:43.693Z,18.33
2018-12-01T15:36:19.629Z,15.27
2018-12-01T15:38:55.400Z,15.80
2018-12-01T15:41:30.558Z,18.53
2018-12-01T15:44:06.370Z,24.30
2018-12-01T15:46:42.569Z,12.17
2018-12-01T15:49:17.535Z,15.17
2018-12-01T15:51:53.495Z,18.27
2018-12-01T15:54:29.361Z,19.50
2018-12-01T15:57:04.512Z,16.00
2018-12-01T15:59:40.351Z,21.47
2018-12-01T16:02:16.235Z,12.67
2018-12-01T16:04:52.008Z,20.10
2018-12-01T16:07:27.943Z,16.13
2018-12-01T16:10:03.711Z,17.73
2018-12-01T16:12:39.449Z,14.90
2018-12-01T16:15:18.890Z,14.03
2018-12-01T16:17:54.118Z,20.30
2018-12-01T16:20:29.429Z,17.60
2018-12-01T16:23:04.756Z,21.50
2018-12-01T16:25:40.200Z,15.53
2018-12-01T16:28:15.489Z,11.77
2018-12-01T16:30:50.952Z,11.97
2018-12-01T16:33:26.548Z,16.03
2018-12-01T16:36:02.494Z,15.13
2018-12-01T16:38:38.336Z,13.33
2018-12-01T16:41:24.288Z,10.23
2018-12-01T16:43:59.540Z,12.20
2018-12-01T16:46:35.428Z,26.03
2018-12-01T16:49:11.242Z,20.87
2018-12-01T16:51:47.116Z,23.83
2018-12-01T16:54:22.911Z,46.80
2018-12-01T16:56:58.832Z,30.13
2018-12-01T16:59:33.892Z,34.73
2018-12-01T17:02:09.702Z,14.40
2018-12-01T17:04:44.711Z,18.33
2018-12-01T17:07:20.604Z,22.77
2018-12-01T17:09:56.362Z,15.27
2018-12-01T17:12:32.191Z,24.37
2018-12-01T17:15:12.670Z,21.37
2018-12-01T17:17:48.247Z,68.67
2018-12-01T17:20:23.394Z,36.80
2018-12-01T17:22:59.250Z,19.50
2018-12-01T17:25:35.160Z,15.77
2018-12-01T17:28:16.534Z,18.70
2018-12-01T17:30:51.954Z,16.40
2018-12-01T17:33:27.861Z,17.27
2018-12-01T17:36:03.132Z,12.00
2018-12-01T17:38:38.219Z,12.10
2018-12-01T17:41:18.140Z,12.87
2018-12-01T17:43:54.868Z,13.50
2018-12-01T17:46:30.458Z,21.53
2018-12-01T17:49:06.995Z,11.90
2018-12-01T17:51:42.090Z,15.13
2018-12-01T17:54:18.530Z,18.07
2018-12-01T17:56:53.921Z,24.00
2018-12-01T17:59:28.918Z,23.97
2018-12-01T18:02:03.858Z,12.40
2018-12-01T18:04:39.799Z,15.50
2018-12-01T18:07:14.690Z,14.33
2018-12-01T18:09:50.629Z,14.23
2018-12-01T18:12:26.297Z,12.53
2018-12-01T18:15:01.396Z,15.30
2018-12-01T18:17:36.922Z,9.57
2018-12-01T18:20:17.574Z,13.87
2018-12-01T18:22:55.106Z,15.20
2018-12-01T18:25:33.450Z,19.03
2018-12-01T18:28:09.683Z,22.90
2018-12-01T18:30:44.707Z,24.97
2018-12-01T18:33:21.736Z,23.60
2018-12-01T18:35:57.532Z,22.30
2018-12-01T18:38:34.408Z,14.93
2018-12-01T18:41:10.404Z,19.33
2018-12-01T18:43:46.201Z,24.47
2018-12-01T18:46:21.179Z,23.13
2018-12-01T18:48:57.133Z,11.77
2018-12-01T18:51:32.078Z,9.70
2018-12-01T18:54:07.234Z,11.57
2018-12-01T18:56:42.940Z,10.80
2018-12-01T18:59:18.875Z,11.80
2018-12-01T19:01:54.771Z,9.97
2018-12-01T19:04:29.844Z,9.07
2018-12-01T19:07:04.969Z,10.27
2018-12-01T19:09:40.972Z,16.73
2018-12-01T19:12:16.233Z,6.60
2018-12-01T19:14:51.842Z,9.70
2018-12-01T19:17:26.912Z,22.77
2018-12-01T19:20:02.871Z,10.73
2018-12-01T19:22:38.760Z,6.37
2018-12-01T19:25:19.997Z,12.23
2018-12-01T19:27:57.166Z,6.77
2018-12-01T19:30:32.591Z,8.17
2018-12-01T19:33:13.087Z,6.00
2018-12-01T19:35:49.576Z,7.27
2018-12-01T19:38:27.461Z,4.87
2018-12-01T19:41:02.287Z,6.53
2018-12-01T19:43:38.099Z,5.57
2018-12-01T19:46:13.802Z,4.20
2018-12-01T19:48:48.882Z,7.87
2018-12-01T19:51:24.687Z,6.57
2018-12-01T19:54:00.589Z,9.70
2018-12-01T19:56:35.560Z,4.83
2018-12-01T19:59:10.830Z,6.83
2018-12-01T20:01:46.620Z,8.23
2018-12-01T20:04:22.161Z,2.90
2018-12-01T20:06:57.898Z,3.97
2018-12-01T20:09:33.139Z,3.03
2018-12-01T20:12:09.444Z,4.97
2018-12-01T20:14:44.737Z,3.60
2018-12-01T20:17:20.680Z,2.50
2018-12-01T20:19:55.650Z,3.07
2018-12-01T20:22:31.503Z,4.27
2018-12-01T20:25:08.818Z,3.40
2018-12-01T20:27:44.432Z,3.67
2018-12-01T20:30:20.701Z,3.70
2018-12-01T20:32:56.055Z,4.30
2018-12-01T20:35:37.153Z,3.00
2018-12-01T20:38:16.628Z,4.93
2018-12-01T20:40:51.788Z,4.60
2018-12-01T20:43:27.720Z,19.77
2018-12-01T20:46:03.193Z,84.90
2018-12-01T20:48:39.142Z,11.87
2018-12-01T20:51:15.029Z,5.27
2018-12-01T20:53:50.937Z,5.87
2018-12-01T20:56:28.375Z,4.77
2018-12-01T20:59:04.079Z,3.10
2018-12-01T21:01:39.392Z,3.97
2018-12-01T21:04:15.178Z,2.13
2018-12-01T21:06:50.925Z,3.97
2018-12-01T21:09:25.976Z,6.30
2018-12-01T21:12:02.536Z,5.17
2018-12-01T21:14:37.817Z,26.17
2018-12-01T21:17:12.795Z,5.67
2018-12-01T21:19:49.012Z,6.47
2018-12-01T21:22:24.626Z,4.23
2018-12-01T21:24:59.649Z,4.23
2018-12-01T21:27:35.674Z,6.03
2018-12-01T21:30:16.409Z,2.90
2018-12-01T21:32:56.723Z,1.93
2018-12-01T21:35:31.790Z,8.13
2018-12-01T21:38:09.855Z,2.90
2018-12-01T21:40:45.690Z,5.43
2018-12-01T21:43:21.679Z,5.73
2018-12-01T21:45:57.661Z,23.13
2018-12-01T21:48:32.585Z,33.03
2018-12-01T21:51:07.584Z,8.97
2018-12-01T21:53:43.553Z,22.23
2018-12-01T21:57:22.692Z,3.70
2018-12-01T21:59:58.104Z,2.07
2018-12-01T22:02:33.904Z,3.77
2018-12-01T22:05:13.437Z,1.97
2018-12-01T22:07:48.599Z,2.70
2018-12-01T22:10:23.587Z,1.60
2018-12-01T22:12:59.539Z,3.37
2018-12-01T22:15:34.444Z,2.30
2018-12-01T22:18:10.224Z,1.53
2018-12-01T22:20:45.970Z,2.43
2018-12-01T22:23:21.007Z,3.43
2018-12-01T22:25:56.851Z,1.63
2018-12-01T22:28:35.452Z,1.50
2018-12-01T22:31:09.001Z,2.97
2018-12-01T22:33:44.219Z,0.90
2018-12-01T22:36:19.153Z,1.03
2018-12-01T22:38:56.174Z,1.03
2018-12-01T22:41:32.120Z,1.23
2018-12-01T22:44:08.050Z,3.17
2018-12-01T22:46:43.863Z,2.07
2018-12-01T22:49:19.636Z,2.23
2018-12-01T22:51:54.820Z,2.40
2018-12-01T22:54:29.804Z,3.73
2018-12-01T22:57:06.004Z,2.53
2018-12-01T22:59:41.775Z,2.23
2018-12-01T23:02:16.422Z,1.33
2018-12-01T23:04:52.408Z,1.90
2018-12-01T23:07:28.096Z,2.27
2018-12-01T23:10:04.755Z,1.10
2018-12-01T23:12:40.132Z,1.83
2018-12-01T23:15:17.095Z,2.60
2018-12-01T23:17:52.696Z,0.93
2018-12-01T23:20:28.690Z,2.10
2018-12-01T23:23:04.720Z,3.53
2018-12-01T23:25:40.677Z,3.00
2018-12-01T23:28:16.542Z,2.70
2018-12-01T23:30:53.317Z,0.73
2018-12-01T23:33:28.983Z,3.60
2018-12-01T23:36:04.583Z,3.80
2018-12-01T23:38:39.671Z,2.07
2018-12-01T23:41:14.640Z,1.53
2018-12-01T23:43:50.488Z,2.00
2018-12-01T23:46:26.262Z,2.37
2018-12-01T23:49:03.455Z,1.40
2018-12-01T23:51:39.254Z,4.40
2018-12-01T23:54:15.177Z,3.87
2018-12-01T23:56:51.117Z,3.10
2018-12-01T23:59:26.130Z,6.30
